createdAt,value
2022-12-01T00:00:44.324Z,97.99
2022-12-01T00:01:44.484Z,98.50
2022-12-01T00:02:44.416Z,98.20
2022-12-01T00:03:44.299Z,98.41
2022-12-01T00:04:44.303Z,98.50
2022-12-01T00:05:44.289Z,98.66
2022-12-01T00:06:44.299Z,97.89
2022-12-01T00:07:44.326Z,97.58
2022-12-01T00:08:44.265Z,98.50
2022-12-01T00:09:44.255Z,98.50
2022-12-01T00:10:44.246Z,97.63
2022-12-01T00:11:45.266Z,98.24
2022-12-01T00:12:44.237Z,98.24
2022-12-01T00:13:44.221Z,97.83
2022-12-01T00:14:44.240Z,97.94
2022-12-01T00:15:44.209Z,97.94
2022-12-01T00:16:44.250Z,98.45
2022-12-01T00:17:44.216Z,98.35
2022-12-01T00:18:44.184Z,98.24
2022-12-01T00:19:44.180Z,98.20
2022-12-01T00:20:44.181Z,98.41
2022-12-01T00:21:44.170Z,97.78
2022-12-01T00:22:44.177Z,97.89
2022-12-01T00:23:44.148Z,98.41
2022-12-01T00:24:44.149Z,98.24
2022-12-01T00:25:44.137Z,97.21
2022-12-01T00:26:44.134Z,97.17
2022-12-01T00:27:44.148Z,96.91
2022-12-01T00:28:44.121Z,96.91
2022-12-01T00:29:44.120Z,96.80
2022-12-01T00:30:44.109Z,97.42
2022-12-01T00:31:44.162Z,97.77
2022-12-01T00:32:44.117Z,98.19
2022-12-01T00:33:44.091Z,98.39
2022-12-01T00:34:44.076Z,99.11
2022-12-01T00:35:44.068Z,99.16
2022-12-01T00:36:44.068Z,99.99
2022-12-01T00:37:44.048Z,99.16
2022-12-01T00:38:44.063Z,98.54
2022-12-01T00:39:44.041Z,98.96
2022-12-01T00:40:44.029Z,99.88
2022-12-01T00:41:44.020Z,99.47
2022-12-01T00:42:44.009Z,99.47
2022-12-01T00:43:44.023Z,99.06
2022-12-01T00:44:43.997Z,98.70
2022-12-01T00:45:44.067Z,99.84
2022-12-01T00:46:43.990Z,99.52
2022-12-01T00:47:43.984Z,99.01
2022-12-01T00:48:43.985Z,98.70
2022-12-01T00:49:43.972Z,98.39
2022-12-01T00:50:43.962Z,98.19
2022-12-01T00:51:44.001Z,98.60
2022-12-01T00:52:43.948Z,97.73
2022-12-01T00:53:43.941Z,98.55
2022-12-01T00:54:43.942Z,97.73
2022-12-01T00:55:43.929Z,97.94
2022-12-01T00:56:43.941Z,97.83
2022-12-01T00:57:43.917Z,97.83
2022-12-01T00:58:43.896Z,97.52
2022-12-01T00:59:43.902Z,96.70
2022-12-01T01:00:43.893Z,96.08
2022-12-01T01:01:43.952Z,96.80
2022-12-01T01:02:43.973Z,95.46
2022-12-01T01:03:43.886Z,95.77
2022-12-01T01:04:43.858Z,95.77
2022-12-01T01:05:43.874Z,96.49
2022-12-01T01:06:43.853Z,96.91
2022-12-01T01:07:43.935Z,96.59
2022-12-01T01:08:43.839Z,96.70
2022-12-01T01:09:43.835Z,96.49
2022-12-01T01:10:43.822Z,96.49
2022-12-01T01:11:43.825Z,96.39
2022-12-01T01:12:43.816Z,96.59
2022-12-01T01:13:43.816Z,96.91
2022-12-01T01:14:43.796Z,97.01
2022-12-01T01:15:43.798Z,96.59
2022-12-01T01:16:43.907Z,96.39
2022-12-01T01:17:43.783Z,97.11
2022-12-01T01:18:43.819Z,97.05
2022-12-01T01:19:43.766Z,97.56
2022-12-01T01:20:43.747Z,97.36
2022-12-01T01:21:43.745Z,98.29
2022-12-01T01:22:43.760Z,97.63
2022-12-01T01:23:43.760Z,97.77
2022-12-01T01:24:43.749Z,97.94
2022-12-01T01:25:43.719Z,97.83
2022-12-01T01:26:43.724Z,97.94
2022-12-01T01:27:43.705Z,98.19
2022-12-01T01:28:43.706Z,97.94
2022-12-01T01:29:43.708Z,98.14
2022-12-01T01:30:43.720Z,98.35
2022-12-01T01:31:44.672Z,97.42
2022-12-01T01:32:43.677Z,97.63
2022-12-01T01:33:43.672Z,97.56
2022-12-01T01:34:43.675Z,97.47
2022-12-01T01:35:43.657Z,97.21
2022-12-01T01:36:43.652Z,97.31
2022-12-01T01:37:43.649Z,97.42
2022-12-01T01:38:43.641Z,97.42
2022-12-01T01:39:43.645Z,97.63
2022-12-01T01:40:43.624Z,97.67
2022-12-01T01:41:43.611Z,97.42
2022-12-01T01:42:43.620Z,97.31
2022-12-01T01:43:43.608Z,97.01
2022-12-01T01:44:43.612Z,96.91
2022-12-01T01:45:43.613Z,96.80
2022-12-01T01:46:43.600Z,97.01
2022-12-01T01:47:43.573Z,96.84
2022-12-01T01:48:43.588Z,98.19
2022-12-01T01:49:43.560Z,97.98
2022-12-01T01:50:43.564Z,97.92
2022-12-01T01:51:43.548Z,98.75
2022-12-01T01:52:43.541Z,98.96
2022-12-01T01:53:43.535Z,98.85
2022-12-01T01:54:43.549Z,99.01
2022-12-01T01:55:43.544Z,98.65
2022-12-01T01:56:43.513Z,98.80
2022-12-01T01:57:43.500Z,98.19
2022-12-01T01:58:43.500Z,98.19
2022-12-01T01:59:43.493Z,98.39
2022-12-01T02:00:43.543Z,98.50
2022-12-01T02:01:43.514Z,98.29
2022-12-01T02:02:43.535Z,97.51
2022-12-01T02:03:43.456Z,97.56
2022-12-01T02:04:43.461Z,97.51
2022-12-01T02:05:43.456Z,98.13
2022-12-01T02:06:43.480Z,98.44
2022-12-01T02:07:43.469Z,97.82
2022-12-01T02:08:43.433Z,97.97
2022-12-01T02:09:43.419Z,97.72
2022-12-01T02:10:43.412Z,98.02
2022-12-01T02:11:43.439Z,98.02
2022-12-01T02:12:43.400Z,98.23
2022-12-01T02:13:43.401Z,98.23
2022-12-01T02:14:43.396Z,98.54
2022-12-01T02:15:43.380Z,97.72
2022-12-01T02:16:43.394Z,97.51
2022-12-01T02:17:43.397Z,97.51
2022-12-01T02:18:43.351Z,97.16
2022-12-01T02:19:43.352Z,96.89
2022-12-01T02:20:43.352Z,96.48
2022-12-01T02:21:43.335Z,96.12
2022-12-01T02:22:43.355Z,96.17
2022-12-01T02:23:43.328Z,96.17
2022-12-01T02:24:43.312Z,95.55
2022-12-01T02:25:43.309Z,95.86
2022-12-01T02:26:43.312Z,95.03
2022-12-01T02:27:43.291Z,95.55
2022-12-01T02:28:43.291Z,95.70
2022-12-01T02:29:43.301Z,95.80
2022-12-01T02:30:43.292Z,96.11
2022-12-01T02:31:43.272Z,96.77
2022-12-01T02:32:43.268Z,96.77
2022-12-01T02:33:43.251Z,96.77
2022-12-01T02:34:43.252Z,96.56
2022-12-01T02:35:43.243Z,97.29
2022-12-01T02:36:43.236Z,97.19
2022-12-01T02:37:43.231Z,97.29
2022-12-01T02:38:43.240Z,97.08
2022-12-01T02:39:43.219Z,96.88
2022-12-01T02:40:43.220Z,97.19
2022-12-01T02:41:43.213Z,96.26
2022-12-01T02:42:43.206Z,95.74
2022-12-01T02:43:43.205Z,96.05
2022-12-01T02:44:43.175Z,96.05
2022-12-01T02:45:43.232Z,95.64
2022-12-01T02:46:43.167Z,95.68
2022-12-01T02:47:43.165Z,95.48
2022-12-01T02:48:43.175Z,95.68
2022-12-01T02:49:43.159Z,95.89
2022-12-01T02:50:43.151Z,95.89
2022-12-01T02:51:43.135Z,96.34
2022-12-01T02:52:43.132Z,96.30
2022-12-01T02:53:43.135Z,97.38
2022-12-01T02:54:43.132Z,97.28
2022-12-01T02:55:43.112Z,96.72
2022-12-01T02:56:43.091Z,96.86
2022-12-01T02:57:43.099Z,97.13
2022-12-01T02:58:43.095Z,97.33
2022-12-01T02:59:43.079Z,96.30
2022-12-01T03:00:43.101Z,95.48
2022-12-01T03:01:43.138Z,95.94
2022-12-01T03:02:43.210Z,95.83
2022-12-01T03:03:43.063Z,95.57
2022-12-01T03:04:43.058Z,96.09
2022-12-01T03:05:43.040Z,96.09
2022-12-01T03:06:43.051Z,95.99
2022-12-01T03:07:43.064Z,95.57
2022-12-01T03:08:43.027Z,95.42
2022-12-01T03:09:43.014Z,95.42
2022-12-01T03:10:43.015Z,95.17
2022-12-01T03:11:43.026Z,95.17
2022-12-01T03:12:42.996Z,95.48
2022-12-01T03:13:42.987Z,95.99
2022-12-01T03:14:42.991Z,95.89
2022-12-01T03:15:43.037Z,95.89
2022-12-01T03:16:42.991Z,95.37
2022-12-01T03:17:42.958Z,95.57
2022-12-01T03:18:42.954Z,95.43
2022-12-01T03:19:42.958Z,95.06
2022-12-01T03:20:42.958Z,94.85
2022-12-01T03:21:42.941Z,95.17
2022-12-01T03:22:42.940Z,95.12
2022-12-01T03:23:42.922Z,95.02
2022-12-01T03:24:42.922Z,95.12
2022-12-01T03:25:42.919Z,95.12
2022-12-01T03:26:42.918Z,95.12
2022-12-01T03:28:00.557Z,95.02
2022-12-01T03:28:44.897Z,94.97
2022-12-01T03:29:42.893Z,94.60
2022-12-01T03:30:42.883Z,94.67
2022-12-01T03:31:42.933Z,94.56
2022-12-01T03:32:42.900Z,94.56
2022-12-01T03:33:42.854Z,94.35
2022-12-01T03:34:42.854Z,94.46
2022-12-01T03:35:42.862Z,93.94
2022-12-01T03:36:42.837Z,93.73
2022-12-01T03:37:42.824Z,93.73
2022-12-01T03:38:42.859Z,93.69
2022-12-01T03:39:42.821Z,93.59
2022-12-01T03:40:42.817Z,93.43
2022-12-01T03:41:42.822Z,93.38
2022-12-01T03:42:42.801Z,92.76
2022-12-01T03:43:42.809Z,92.80
2022-12-01T03:44:42.845Z,92.66
2022-12-01T03:45:42.786Z,92.97
2022-12-01T03:46:42.838Z,92.70
2022-12-01T03:47:42.784Z,92.80
2022-12-01T03:48:42.776Z,91.88
2022-12-01T03:49:42.781Z,91.46
2022-12-01T03:50:42.754Z,91.71
2022-12-01T03:51:42.750Z,91.82
2022-12-01T03:52:42.742Z,92.33
2022-12-01T03:53:42.746Z,92.13
2022-12-01T03:54:42.754Z,91.88
2022-12-01T03:55:42.778Z,91.46
2022-12-01T03:56:42.713Z,91.82
2022-12-01T03:57:42.744Z,91.40
2022-12-01T03:58:42.698Z,91.50
2022-12-01T03:59:42.757Z,91.82
2022-12-01T04:00:42.706Z,91.30
2022-12-01T04:01:42.712Z,91.44
2022-12-01T04:02:42.720Z,91.34
2022-12-01T04:03:42.668Z,91.55
2022-12-01T04:04:42.685Z,91.03
2022-12-01T04:05:42.658Z,91.59
2022-12-01T04:06:42.642Z,92.11
2022-12-01T04:07:42.651Z,92.46
2022-12-01T04:08:42.629Z,92.11
2022-12-01T04:09:42.644Z,92.93
2022-12-01T04:10:42.629Z,92.97
2022-12-01T04:11:42.597Z,92.57
2022-12-01T04:12:42.610Z,93.08
2022-12-01T04:13:42.590Z,93.29
2022-12-01T04:14:42.588Z,93.14
2022-12-01T04:15:42.605Z,93.35
2022-12-01T04:16:42.593Z,93.14
2022-12-01T04:17:42.565Z,93.35
2022-12-01T04:18:42.562Z,92.83
2022-12-01T04:19:42.556Z,92.93
2022-12-01T04:20:42.553Z,92.17
2022-12-01T04:21:42.598Z,92.11
2022-12-01T04:22:42.537Z,91.75
2022-12-01T04:23:42.533Z,91.65
2022-12-01T04:24:42.525Z,91.65
2022-12-01T04:25:42.521Z,90.62
2022-12-01T04:26:42.513Z,90.41
2022-12-01T04:27:42.513Z,90.62
2022-12-01T04:28:42.504Z,90.83
2022-12-01T04:29:42.493Z,91.55
2022-12-01T04:30:42.493Z,91.55
2022-12-01T04:31:42.512Z,91.13
2022-12-01T04:32:42.482Z,91.44
2022-12-01T04:33:42.473Z,91.44
2022-12-01T04:34:42.469Z,91.38
2022-12-01T04:35:42.457Z,91.55
2022-12-01T04:36:42.453Z,91.49
2022-12-01T04:37:42.450Z,91.49
2022-12-01T04:38:42.450Z,91.44
2022-12-01T04:39:42.429Z,91.38
2022-12-01T04:40:42.442Z,91.75
2022-12-01T04:41:42.419Z,91.49
2022-12-01T04:42:42.409Z,91.17
2022-12-01T04:43:42.407Z,91.90
2022-12-01T04:44:42.393Z,91.59
2022-12-01T04:45:42.397Z,91.38
2022-12-01T04:46:42.441Z,91.49
2022-12-01T04:47:42.377Z,91.69
2022-12-01T04:48:42.374Z,91.59
2022-12-01T04:49:42.358Z,92.00
2022-12-01T04:50:42.366Z,91.90
2022-12-01T04:51:42.351Z,91.59
2022-12-01T04:52:42.349Z,92.11
2022-12-01T04:53:42.328Z,92.11
2022-12-01T04:54:42.332Z,92.42
2022-12-01T04:55:42.329Z,91.49
2022-12-01T04:56:42.317Z,92.05
2022-12-01T04:57:42.322Z,92.00
2022-12-01T04:58:42.306Z,92.57
2022-12-01T04:59:42.303Z,91.69
2022-12-01T05:00:42.356Z,91.59
2022-12-01T05:01:43.372Z,91.69
2022-12-01T05:02:42.305Z,91.80
2022-12-01T05:03:43.277Z,92.42
2022-12-01T05:04:42.273Z,92.42
2022-12-01T05:05:42.261Z,92.32
2022-12-01T05:06:42.255Z,92.07
2022-12-01T05:07:42.395Z,92.42
2022-12-01T05:08:42.244Z,91.86
2022-12-01T05:09:42.235Z,91.86
2022-12-01T05:10:42.221Z,91.49
2022-12-01T05:11:42.213Z,91.28
2022-12-01T05:12:42.215Z,91.49
2022-12-01T05:13:42.229Z,92.11
2022-12-01T05:14:42.225Z,91.90
2022-12-01T05:15:42.189Z,92.32
2022-12-01T05:16:43.239Z,91.59
2022-12-01T05:17:42.185Z,91.84
2022-12-01T05:18:42.246Z,91.90
2022-12-01T05:19:42.177Z,91.59
2022-12-01T05:20:42.161Z,91.63
2022-12-01T05:21:42.149Z,91.42
2022-12-01T05:23:04.854Z,91.53
2022-12-01T05:23:44.141Z,91.63
2022-12-01T05:24:42.148Z,91.53
2022-12-01T05:25:42.114Z,91.53
2022-12-01T05:26:42.122Z,92.09
2022-12-01T05:27:42.113Z,91.88
2022-12-01T05:28:42.107Z,91.99
2022-12-01T05:29:42.111Z,91.78
2022-12-01T05:30:42.091Z,92.09
2022-12-01T05:31:42.140Z,92.09
2022-12-01T05:32:42.075Z,92.09
2022-12-01T05:33:42.068Z,92.19
2022-12-01T05:34:42.072Z,92.09
2022-12-01T05:35:42.082Z,91.67
2022-12-01T05:36:42.052Z,91.74
2022-12-01T05:37:42.041Z,92.50
2022-12-01T05:38:42.041Z,92.25
2022-12-01T05:39:42.040Z,91.74
2022-12-01T05:40:42.017Z,91.53
2022-12-01T05:41:42.025Z,91.63
2022-12-01T05:42:42.013Z,92.05
2022-12-01T05:43:42.008Z,91.84
2022-12-01T05:44:42.216Z,89.77
2022-12-01T05:45:42.054Z,89.56
2022-12-01T05:46:41.981Z,89.77
2022-12-01T05:47:41.980Z,90.23
2022-12-01T05:48:41.978Z,89.56
2022-12-01T05:49:42.004Z,89.71
2022-12-01T05:50:41.972Z,89.71
2022-12-01T05:51:41.949Z,88.67
2022-12-01T05:52:41.940Z,89.29
2022-12-01T05:53:41.960Z,89.92
2022-12-01T05:54:41.933Z,90.12
2022-12-01T05:55:41.949Z,89.92
2022-12-01T05:56:41.920Z,89.92
2022-12-01T05:57:41.910Z,89.61
2022-12-01T05:58:41.913Z,89.40
2022-12-01T05:59:41.896Z,89.65
2022-12-01T06:00:45.703Z,89.44
2022-12-01T06:01:42.942Z,89.54
2022-12-01T06:02:41.872Z,89.96
2022-12-01T06:03:41.921Z,90.37
2022-12-01T06:04:41.870Z,90.20
2022-12-01T06:05:41.865Z,90.31
2022-12-01T06:06:41.849Z,90.31
2022-12-01T06:07:41.897Z,90.52
2022-12-01T06:08:41.828Z,89.89
2022-12-01T06:09:41.848Z,89.89
2022-12-01T06:10:41.837Z,90.52
2022-12-01T06:11:41.814Z,89.69
2022-12-01T06:12:41.808Z,90.04
2022-12-01T06:13:41.809Z,90.10
2022-12-01T06:14:41.795Z,90.31
2022-12-01T06:15:41.841Z,90.31
2022-12-01T06:16:41.817Z,90.20
2022-12-01T06:17:41.780Z,89.94
2022-12-01T06:18:41.774Z,90.20
2022-12-01T06:19:41.745Z,90.25
2022-12-01T06:20:41.749Z,90.14
2022-12-01T06:21:41.738Z,90.04
2022-12-01T06:22:41.749Z,90.04
2022-12-01T06:23:41.720Z,89.73
2022-12-01T06:24:41.720Z,89.62
2022-12-01T06:25:41.710Z,90.45
2022-12-01T06:26:41.718Z,90.00
2022-12-01T06:27:41.753Z,90.14
2022-12-01T06:28:41.691Z,90.00
2022-12-01T06:29:42.379Z,90.10
2022-12-01T06:30:42.693Z,89.73
2022-12-01T06:31:41.685Z,89.48
2022-12-01T06:32:41.680Z,89.58
2022-12-01T06:33:41.642Z,89.69
2022-12-01T06:34:41.656Z,89.73
2022-12-01T06:35:41.639Z,89.73
2022-12-01T06:36:41.635Z,89.52
2022-12-01T06:37:41.627Z,90.04
2022-12-01T06:38:41.635Z,90.45
2022-12-01T06:39:41.601Z,90.35
2022-12-01T06:40:41.624Z,89.94
2022-12-01T06:41:41.601Z,90.25
2022-12-01T06:42:41.598Z,89.83
2022-12-01T06:43:41.590Z,90.35
2022-12-01T06:44:41.601Z,90.25
2022-12-01T06:45:41.620Z,89.94
2022-12-01T06:46:41.569Z,90.45
2022-12-01T06:47:41.559Z,90.14
2022-12-01T06:48:41.551Z,89.73
2022-12-01T06:49:41.547Z,89.73
2022-12-01T06:50:41.555Z,88.79
2022-12-01T06:51:41.532Z,89.31
2022-12-01T06:52:41.531Z,89.00
2022-12-01T06:53:41.519Z,89.11
2022-12-01T06:54:41.518Z,89.00
2022-12-01T06:55:41.511Z,89.31
2022-12-01T06:56:41.513Z,89.17
2022-12-01T06:57:41.499Z,89.31
2022-12-01T06:58:41.498Z,88.96
2022-12-01T06:59:41.479Z,88.07
2022-12-01T07:00:45.392Z,88.96
2022-12-01T07:01:42.556Z,88.59
2022-12-01T07:02:41.551Z,89.21
2022-12-01T07:03:41.464Z,89.17
2022-12-01T07:04:41.459Z,89.00
2022-12-01T07:05:41.453Z,89.21
2022-12-01T07:06:41.444Z,89.11
2022-12-01T07:07:42.525Z,89.11
2022-12-01T07:08:41.440Z,88.28
2022-12-01T07:09:41.420Z,88.69
2022-12-01T07:10:41.395Z,88.48
2022-12-01T07:11:41.433Z,88.28
2022-12-01T07:12:41.446Z,88.79
2022-12-01T07:13:41.421Z,88.48
2022-12-01T07:14:41.406Z,89.52
2022-12-01T07:15:41.386Z,89.31
2022-12-01T07:16:41.421Z,89.11
2022-12-01T07:17:41.364Z,88.79
2022-12-01T07:18:41.397Z,89.00
2022-12-01T07:19:41.354Z,89.31
2022-12-01T07:20:41.355Z,89.11
2022-12-01T07:21:41.380Z,89.52
2022-12-01T07:22:41.350Z,89.11
2022-12-01T07:23:41.362Z,89.31
2022-12-01T07:24:41.349Z,88.90
2022-12-01T07:25:41.318Z,89.42
2022-12-01T07:26:41.412Z,89.42
2022-12-01T07:27:41.292Z,88.79
2022-12-01T07:28:41.302Z,89.21
2022-12-01T07:29:41.281Z,89.42
2022-12-01T07:30:41.309Z,88.69
2022-12-01T07:31:41.292Z,88.96
2022-12-01T07:32:41.270Z,89.28
2022-12-01T07:33:41.268Z,89.28
2022-12-01T07:34:41.256Z,89.28
2022-12-01T07:35:41.243Z,89.28
2022-12-01T07:36:41.239Z,88.65
2022-12-01T07:37:41.229Z,89.38
2022-12-01T07:38:41.213Z,89.07
2022-12-01T07:39:41.230Z,89.28
2022-12-01T07:40:41.222Z,88.92
2022-12-01T07:41:41.205Z,88.40
2022-12-01T07:42:41.191Z,88.51
2022-12-01T07:43:41.196Z,87.68
2022-12-01T07:44:41.206Z,88.09
2022-12-01T07:45:41.220Z,88.51
2022-12-01T07:46:41.214Z,88.51
2022-12-01T07:47:41.171Z,88.09
2022-12-01T07:48:41.157Z,88.16
2022-12-01T07:49:41.258Z,88.06
2022-12-01T07:50:41.149Z,87.99
2022-12-01T07:51:41.136Z,87.37
2022-12-01T07:52:41.148Z,87.27
2022-12-01T07:53:41.125Z,88.30
2022-12-01T07:54:41.252Z,87.62
2022-12-01T07:55:41.126Z,87.51
2022-12-01T07:56:41.126Z,88.13
2022-12-01T07:57:41.093Z,88.92
2022-12-01T07:58:41.084Z,88.92
2022-12-01T07:59:41.100Z,89.23
2022-12-01T08:00:41.065Z,89.13
2022-12-01T08:01:44.426Z,89.19
2022-12-01T08:02:42.131Z,89.09
2022-12-01T08:03:41.073Z,88.46
2022-12-01T08:04:41.054Z,88.22
2022-12-01T08:05:41.044Z,88.01
2022-12-01T08:06:41.037Z,87.18
2022-12-01T08:07:41.146Z,87.49
2022-12-01T08:08:41.062Z,87.54
2022-12-01T08:09:41.117Z,86.81
2022-12-01T08:10:41.005Z,86.88
2022-12-01T08:11:41.000Z,87.49
2022-12-01T08:12:41.996Z,86.71
2022-12-01T08:13:41.008Z,87.43
2022-12-01T08:14:41.090Z,88.06
2022-12-01T08:15:41.053Z,87.06
2022-12-01T08:16:40.969Z,87.27
2022-12-01T08:17:40.961Z,88.09
2022-12-01T08:18:40.948Z,88.61
2022-12-01T08:19:40.976Z,89.07
2022-12-01T08:20:40.992Z,88.65
2022-12-01T08:21:40.941Z,88.24
2022-12-01T08:22:40.936Z,88.03
2022-12-01T08:23:40.932Z,87.93
2022-12-01T08:24:40.920Z,88.69
2022-12-01T08:25:40.901Z,89.28
2022-12-01T08:26:40.933Z,88.76
2022-12-01T08:27:40.908Z,89.73
2022-12-01T08:28:40.896Z,89.83
2022-12-01T08:29:40.888Z,89.62
2022-12-01T08:30:40.992Z,89.83
2022-12-01T08:31:41.002Z,89.62
2022-12-01T08:32:40.886Z,89.62
2022-12-01T08:33:40.866Z,89.42
2022-12-01T08:34:40.850Z,89.62
2022-12-01T08:35:40.850Z,89.83
2022-12-01T08:36:40.853Z,89.94
2022-12-01T08:37:40.842Z,89.89
2022-12-01T08:38:40.826Z,90.14
2022-12-01T08:39:40.829Z,89.62
2022-12-01T08:40:40.905Z,89.73
2022-12-01T08:41:40.806Z,90.04
2022-12-01T08:42:41.012Z,89.62
2022-12-01T08:43:57.379Z,89.52
2022-12-01T08:44:42.857Z,89.42
2022-12-01T08:45:40.784Z,89.31
2022-12-01T08:46:40.833Z,89.52
2022-12-01T08:47:40.793Z,89.87
2022-12-01T08:48:40.767Z,89.83
2022-12-01T08:49:40.760Z,89.36
2022-12-01T08:50:40.772Z,89.00
2022-12-01T08:51:40.747Z,89.15
2022-12-01T08:52:40.748Z,89.21
2022-12-01T08:53:45.303Z,89.77
2022-12-01T08:54:42.741Z,88.84
2022-12-01T08:55:40.732Z,89.77
2022-12-01T08:56:40.712Z,89.67
2022-12-01T08:57:40.709Z,89.87
2022-12-01T08:58:40.692Z,90.19
2022-12-01T08:59:40.712Z,90.08
2022-12-01T09:00:40.685Z,89.87
2022-12-01T09:01:40.707Z,89.87
2022-12-01T09:02:40.706Z,88.84
2022-12-01T09:03:40.668Z,89.62
2022-12-01T09:04:40.658Z,89.25
2022-12-01T09:05:40.660Z,89.15
2022-12-01T09:06:40.698Z,89.15
2022-12-01T09:07:40.703Z,89.73
2022-12-01T09:08:40.625Z,89.77
2022-12-01T09:09:40.620Z,88.73
2022-12-01T09:10:40.648Z,90.08
2022-12-01T09:11:40.621Z,89.52
2022-12-01T09:12:40.604Z,89.73
2022-12-01T09:13:40.596Z,89.73
2022-12-01T09:14:40.593Z,89.31
2022-12-01T09:15:40.593Z,89.11
2022-12-01T09:16:40.645Z,89.21
2022-12-01T09:17:40.567Z,88.18
2022-12-01T09:18:40.564Z,88.18
2022-12-01T09:19:40.560Z,87.55
2022-12-01T09:20:40.546Z,88.07
2022-12-01T09:21:40.549Z,88.69
2022-12-01T09:22:40.529Z,89.42
2022-12-01T09:23:40.551Z,89.07
2022-12-01T09:24:40.526Z,89.11
2022-12-01T09:25:40.519Z,88.73
2022-12-01T09:26:40.531Z,88.48
2022-12-01T09:27:40.518Z,89.36
2022-12-01T09:28:40.511Z,88.94
2022-12-01T09:29:40.493Z,89.56
2022-12-01T09:30:40.493Z,89.36
2022-12-01T09:31:40.574Z,89.21
2022-12-01T09:32:40.490Z,89.67
2022-12-01T09:33:40.470Z,89.56
2022-12-01T09:34:40.463Z,89.73
2022-12-01T09:35:40.451Z,89.11
2022-12-01T09:36:40.450Z,89.21
2022-12-01T09:37:40.481Z,89.42
2022-12-01T09:38:40.438Z,89.21
2022-12-01T09:39:40.454Z,89.42
2022-12-01T09:40:40.429Z,89.31
2022-12-01T09:41:40.418Z,89.11
2022-12-01T09:42:40.412Z,89.42
2022-12-01T09:43:40.413Z,89.11
2022-12-01T09:44:40.394Z,89.25
2022-12-01T09:45:40.385Z,89.42
2022-12-01T09:46:40.454Z,89.11
2022-12-01T09:47:40.401Z,89.11
2022-12-01T09:48:40.370Z,89.11
2022-12-01T09:49:40.373Z,89.52
2022-12-01T09:50:40.354Z,89.58
2022-12-01T09:51:40.355Z,88.79
2022-12-01T09:52:40.345Z,88.24
2022-12-01T09:53:40.331Z,89.48
2022-12-01T09:54:40.337Z,89.11
2022-12-01T09:55:40.379Z,88.24
2022-12-01T09:56:40.314Z,88.39
2022-12-01T09:57:40.297Z,87.97
2022-12-01T09:58:40.330Z,87.87
2022-12-01T09:59:40.307Z,87.14
2022-12-01T10:00:40.352Z,87.14
2022-12-01T10:01:41.352Z,86.93
2022-12-01T10:02:40.289Z,87.35
2022-12-01T10:03:40.291Z,87.90
2022-12-01T10:04:40.274Z,86.93
2022-12-01T10:05:56.620Z,86.66
2022-12-01T10:06:42.312Z,86.35
2022-12-01T10:07:40.348Z,86.62
2022-12-01T10:08:40.246Z,87.04
2022-12-01T10:09:40.243Z,86.97
2022-12-01T10:10:40.229Z,87.87
2022-12-01T10:11:40.226Z,87.76
2022-12-01T10:12:40.217Z,87.24
2022-12-01T10:13:42.742Z,87.49
2022-12-01T10:14:40.206Z,87.18
2022-12-01T10:15:40.203Z,86.45
2022-12-01T10:16:40.246Z,86.04
2022-12-01T10:17:40.181Z,85.83
2022-12-01T10:18:40.170Z,85.83
2022-12-01T10:19:40.171Z,85.63
2022-12-01T10:20:40.186Z,85.73
2022-12-01T10:21:40.151Z,84.59
2022-12-01T10:22:40.179Z,85.48
2022-12-01T10:23:40.161Z,85.83
2022-12-01T10:24:40.130Z,85.27
2022-12-01T10:25:40.125Z,84.75
2022-12-01T10:26:40.120Z,85.00
2022-12-01T10:27:40.110Z,85.42
2022-12-01T10:28:40.107Z,85.06
2022-12-01T10:29:43.745Z,85.11
2022-12-01T10:30:41.114Z,86.21
2022-12-01T10:31:40.129Z,85.79
2022-12-01T10:32:40.070Z,85.38
2022-12-01T10:33:40.066Z,84.92
2022-12-01T10:34:40.058Z,85.44
2022-12-01T10:35:40.057Z,86.07
2022-12-01T10:36:40.071Z,85.19
2022-12-01T10:37:40.085Z,83.54
2022-12-01T10:38:40.041Z,82.92
2022-12-01T10:39:40.032Z,83.44
2022-12-01T10:40:40.006Z,83.02
2022-12-01T10:41:40.039Z,83.12
2022-12-01T10:42:40.004Z,83.29
2022-12-01T10:43:40.024Z,82.05
2022-12-01T10:44:39.998Z,81.64
2022-12-01T10:45:40.103Z,80.26
2022-12-01T10:46:39.987Z,80.19
2022-12-01T10:47:39.971Z,80.08
2022-12-01T10:48:39.966Z,80.08
2022-12-01T10:49:39.962Z,80.91
2022-12-01T10:50:39.958Z,81.70
2022-12-01T10:51:39.949Z,81.19
2022-12-01T10:52:39.945Z,82.32
2022-12-01T10:53:39.935Z,82.01
2022-12-01T10:54:39.952Z,82.50
2022-12-01T10:55:43.471Z,82.29
2022-12-01T10:56:40.920Z,82.29
2022-12-01T10:57:39.915Z,81.35
2022-12-01T10:58:39.906Z,80.70
2022-12-01T10:59:39.939Z,81.11
2022-12-01T11:01:42.002Z,81.42
2022-12-01T11:02:40.027Z,81.01
2022-12-01T11:03:39.901Z,80.49
2022-12-01T11:04:39.894Z,80.18
2022-12-01T11:05:39.851Z,79.66
2022-12-01T11:06:39.862Z,80.80
2022-12-01T11:07:39.873Z,81.73
2022-12-01T11:08:40.838Z,80.80
2022-12-01T11:09:39.843Z,79.56
2022-12-01T11:10:39.846Z,79.87
2022-12-01T11:11:39.811Z,80.35
2022-12-01T11:12:39.813Z,79.77
2022-12-01T11:13:39.820Z,80.29
2022-12-01T11:14:39.807Z,80.90
2022-12-01T11:15:39.821Z,81.18
2022-12-01T11:16:39.914Z,80.66
2022-12-01T11:17:39.790Z,80.25
2022-12-01T11:18:39.826Z,79.46
2022-12-01T11:19:39.940Z,79.56
2022-12-01T11:20:39.804Z,79.73
2022-12-01T11:21:39.770Z,79.22
2022-12-01T11:22:39.772Z,79.22
2022-12-01T11:23:39.736Z,79.36
2022-12-01T11:24:39.745Z,79.15
2022-12-01T11:25:39.734Z,79.77
2022-12-01T11:26:39.709Z,80.08
2022-12-01T11:27:39.789Z,80.04
2022-12-01T11:28:39.713Z,79.56
2022-12-01T11:29:39.701Z,79.73
2022-12-01T11:30:39.698Z,80.15
2022-12-01T11:31:39.731Z,79.05
2022-12-01T11:32:39.782Z,78.94
2022-12-01T11:33:39.688Z,79.25
2022-12-01T11:34:39.665Z,79.19
2022-12-01T11:35:39.669Z,78.84
2022-12-01T11:36:39.661Z,79.15
2022-12-01T11:37:39.652Z,79.80
2022-12-01T11:38:39.671Z,80.43
2022-12-01T11:39:39.632Z,79.97
2022-12-01T11:40:39.650Z,79.29
2022-12-01T11:41:39.637Z,77.84
2022-12-01T11:42:39.616Z,79.29
2022-12-01T11:43:43.718Z,79.80
2022-12-01T11:44:51.369Z,80.94
2022-12-01T11:45:41.631Z,80.43
2022-12-01T11:46:46.334Z,79.49
2022-12-01T11:47:41.589Z,79.60
2022-12-01T11:48:39.578Z,80.08
2022-12-01T11:49:45.510Z,80.32
2022-12-01T11:50:41.564Z,80.80
2022-12-01T11:51:39.591Z,79.87
2022-12-01T11:52:39.549Z,79.36
2022-12-01T11:53:40.549Z,79.25
2022-12-01T11:54:39.539Z,80.18
2022-12-01T11:55:39.529Z,79.63
2022-12-01T11:56:39.566Z,79.56
2022-12-01T11:57:39.520Z,79.94
2022-12-01T11:58:39.574Z,79.63
2022-12-01T11:59:39.524Z,79.73
2022-12-01T12:00:40.489Z,79.73
2022-12-01T12:01:39.514Z,79.63
2022-12-01T12:02:39.516Z,79.32
2022-12-01T12:03:39.524Z,80.25
2022-12-01T12:04:39.508Z,79.22
2022-12-01T12:05:39.474Z,79.22
2022-12-01T12:06:40.438Z,79.22
2022-12-01T12:07:40.514Z,79.83
2022-12-01T12:08:39.512Z,79.52
2022-12-01T12:09:45.053Z,79.11
2022-12-01T12:10:40.467Z,79.01
2022-12-01T12:11:39.440Z,79.01
2022-12-01T12:12:39.421Z,79.01
2022-12-01T12:13:39.396Z,79.01
2022-12-01T12:14:39.402Z,77.98
2022-12-01T12:15:39.480Z,78.49
2022-12-01T12:16:39.382Z,79.15
2022-12-01T12:17:39.431Z,79.25
2022-12-01T12:18:39.376Z,79.56
2022-12-01T12:20:06.680Z,79.15
2022-12-01T12:20:41.356Z,79.83
2022-12-01T12:21:40.353Z,79.97
2022-12-01T12:22:39.348Z,79.56
2022-12-01T12:23:39.344Z,79.97
2022-12-01T12:24:39.329Z,79.25
2022-12-01T12:25:39.336Z,78.91
2022-12-01T12:26:39.320Z,79.77
2022-12-01T12:27:39.305Z,80.15
2022-12-01T12:28:39.373Z,80.15
2022-12-01T12:29:39.316Z,80.00
2022-12-01T12:30:39.311Z,79.73
2022-12-01T12:31:39.286Z,79.83
2022-12-01T12:32:39.280Z,79.73
2022-12-01T12:33:39.276Z,79.52
2022-12-01T12:34:39.271Z,79.22
2022-12-01T12:35:39.341Z,79.38
2022-12-01T12:36:39.292Z,79.38
2022-12-01T12:37:39.284Z,79.52
2022-12-01T12:38:39.248Z,79.32
2022-12-01T12:39:39.261Z,79.73
2022-12-01T12:40:39.233Z,79.63
2022-12-01T12:41:39.233Z,80.46
2022-12-01T12:42:39.205Z,80.35
2022-12-01T12:43:39.209Z,79.32
2022-12-01T12:44:39.196Z,79.80
2022-12-01T12:45:39.181Z,79.42
2022-12-01T12:46:39.212Z,79.69
2022-12-01T12:47:39.164Z,79.69
2022-12-01T12:49:03.599Z,79.59
2022-12-01T12:49:41.176Z,79.38
2022-12-01T12:50:39.145Z,79.08
2022-12-01T12:51:39.142Z,79.08
2022-12-01T12:52:39.119Z,78.97
2022-12-01T12:53:39.190Z,79.18